Time;durP1;ratioP1;P1;durP2;ratioP2;P2;SDS_P1;SDS_P2;PMS_P1;PMS_P2;Temp;Humidity;BMP_temperature;BMP_pressure;BME280_temperature;BME280_humidity;BME280_pressure;Samples;Min_cycle;Max_cycle;Signal;HPM_P1;HPM_P2
2023/12/24 06:34:55;;;;;;;0.80;0.50;;;;;;;-143.84;63.06;45203.31;5360323;22;20563;-59
2023/12/24 06:37:22;;;;;;;1.67;1.00;;;;;;;-143.84;63.40;45178.56;5104031;28;20455;-59
2023/12/24 06:39:49;;;;;;;0.80;0.57;;;;;;;-143.84;63.14;45207.13;5089735;28;20473;-60
2023/12/24 06:42:16;;;;;;;1.00;0.90;;;;;;;-143.84;63.36;45178.56;5089914;28;20458;-60
2023/12/24 06:44:43;;;;;;;1.87;0.80;;;;;;;-143.84;63.28;45178.56;5088527;28;20454;-59
2023/12/24 06:47:10;;;;;;;1.00;0.67;;;;;;;-143.84;62.98;45167.13;5089617;28;20437;-57
2023/12/24 06:49:41;;;;;;;0.80;0.50;;;;;;;-143.84;62.45;45199.50;5089281;28;20440;-57
2023/12/24 06:52:10;;;;;;;0.80;0.50;;;;;;;-143.84;61.43;45174.75;5096222;28;20442;-57
2023/12/24 06:54:37;;;;;;;0.80;0.50;;;;;;;-143.84;60.80;45184.25;5109473;28;20455;-57
2023/12/24 06:57:04;;;;;;;0.90;0.60;;;;;;;-143.84;59.75;45169.03;5109338;28;20494;-58
2023/12/24 06:59:31;;;;;;;0.80;0.50;;;;;;;-143.84;58.56;45186.16;5109690;28;20484;-58
2023/12/24 07:01:59;;;;;;;0.80;0.60;;;;;;;-143.84;57.42;45170.94;5109516;28;20941;-58
2023/12/24 07:04:26;;;;;;;0.80;0.40;;;;;;;-143.84;55.97;45174.75;5109227;28;20470;-58
2023/12/24 07:06:52;;;;;;;0.80;0.40;;;;;;;-143.84;54.84;45146.19;5108629;28;20434;-58
2023/12/24 07:09:20;;;;;;;0.97;0.87;;;;;;;-143.84;52.38;45172.84;5108424;28;20857;-58
2023/12/24 07:11:47;;;;;;;0.80;0.40;;;;;;;-143.84;51.55;45155.69;5109350;28;20442;-58
2023/12/24 07:14:14;;;;;;;0.80;0.40;;;;;;;-143.84;51.49;45172.84;5108531;28;20496;-58
2023/12/24 07:16:42;;;;;;;0.80;0.50;;;;;;;-143.84;51.76;45161.41;5108730;28;20431;-58
2023/12/24 07:19:09;;;;;;;0.87;0.70;;;;;;;-143.84;50.79;45148.09;5103582;28;21038;-58
2023/12/24 07:21:36;;;;;;;0.90;0.67;;;;;;;-143.84;49.00;45167.13;5088950;28;20581;-58
2023/12/24 07:24:03;;;;;;;1.33;1.23;;;;;;;-143.84;48.56;45176.66;5107547;28;20496;-58
2023/12/24 07:26:32;;;;;;;0.80;0.40;;;;;;;-143.84;47.52;45161.41;5109248;28;20537;-58
2023/12/24 07:28:59;;;;;;;0.80;0.40;;;;;;;-143.84;46.83;45144.28;5109008;28;20450;-58
2023/12/24 07:31:26;;;;;;;2.30;1.60;;;;;;;-143.84;46.09;45153.81;5109155;28;20435;-58
2023/12/24 07:33:53;;;;;;;1.07;0.67;;;;;;;-143.84;44.48;45134.75;5108881;28;20490;-58
2023/12/24 07:36:20;;;;;;;0.80;0.50;;;;;;;-143.84;44.63;45161.41;5109107;28;20770;-58
2023/12/24 07:38:47;;;;;;;0.80;0.43;;;;;;;-143.84;43.84;45132.84;5109030;28;20531;-58
2023/12/24 07:41:14;;;;;;;0.87;0.70;;;;;;;-143.84;43.33;45129.03;5109042;28;20431;-57
2023/12/24 07:43:43;;;;;;;0.80;0.50;;;;;;;-143.84;42.44;45132.84;5108994;28;20496;-58
2023/12/24 07:46:10;;;;;;;1.23;0.70;;;;;;;-143.84;42.42;45125.22;5108995;28;20439;-58
2023/12/24 07:48:38;;;;;;;1.57;0.60;;;;;;;-143.84;41.53;45134.75;5109318;28;20523;-57
2023/12/24 07:51:05;;;;;;;0.80;0.50;;;;;;;-143.84;40.71;45125.22;5109372;28;20439;-58
2023/12/24 07:53:32;;;;;;;1.07;0.53;;;;;;;-143.84;40.66;45153.81;5108868;28;20443;-58
2023/12/24 07:55:59;;;;;;;0.80;0.40;;;;;;;-143.84;40.42;45125.22;5110584;28;20447;-58
2023/12/24 07:58:26;;;;;;;0.80;0.60;;;;;;;-143.84;40.71;45159.50;5113164;28;20474;-58
2023/12/24 08:00:55;;;;;;;0.80;0.40;;;;;;;-143.84;40.23;45117.63;5113035;28;20833;-58
2023/12/24 08:03:22;;;;;;;0.80;0.40;;;;;;;-143.84;39.86;45144.28;5112254;28;20439;-58
2023/12/24 08:05:49;;;;;;;1.47;1.20;;;;;;;-143.84;39.78;45115.72;5093003;28;20883;-58
2023/12/24 08:08:16;;;;;;;0.80;0.40;;;;;;;-143.84;39.71;45113.81;5092838;28;20491;-57
2023/12/24 08:10:43;;;;;;;0.80;0.43;;;;;;;-143.84;39.35;45121.44;5092591;28;20438;-58
2023/12/24 08:13:10;;;;;;;0.90;0.57;;;;;;;-143.84;38.47;45155.69;5092842;28;20444;-57
2023/12/24 08:15:38;;;;;;;0.80;0.40;;;;;;;-143.84;39.15;45110.00;5108089;28;20439;-57
2023/12/24 08:18:06;;;;;;;13.03;1.33;;;;;;;-143.84;38.86;45104.28;5112942;28;20842;-58
2023/12/24 08:20:34;;;;;;;1.20;0.77;;;;;;;-143.84;38.49;45110.00;5113474;28;20505;-58
2023/12/24 08:23:01;;;;;;;0.80;0.47;;;;;;;-143.84;38.67;45121.44;5113298;28;20512;-58
2023/12/24 08:25:28;;;;;;;0.80;0.40;;;;;;;-143.84;37.81;45106.19;5110754;28;21318;-58
2023/12/24 08:27:55;;;;;;;0.80;0.40;;;;;;;-143.84;38.66;45132.84;5101210;28;20528;-58
2023/12/24 08:30:22;;;;;;;1.20;0.63;;;;;;;-143.84;39.11;45094.78;5092779;28;20439;-58
2023/12/24 08:32:50;;;;;;;0.80;0.50;;;;;;;-143.84;39.85;45106.19;5092502;28;20439;-58
2023/12/24 08:35:18;;;;;;;1.53;0.80;;;;;;;-143.84;40.27;45130.94;5100716;28;20566;-57
2023/12/24 08:37:45;;;;;;;0.90;0.63;;;;;;;-143.84;40.28;45117.63;5100509;28;20436;-57
2023/12/24 08:40:13;;;;;;;0.80;0.60;;;;;;;-143.84;40.74;45127.13;5092439;28;20475;-57
2023/12/24 08:42:41;;;;;;;0.90;0.73;;;;;;;-143.84;41.17;45117.63;5092319;28;20498;-57
2023/12/24 08:45:09;;;;;;;0.80;0.50;;;;;;;-143.84;41.00;45129.03;5092437;28;20466;-57
2023/12/24 08:47:37;;;;;;;0.93;0.80;;;;;;;-143.84;40.78;45151.91;5092204;28;20466;-58
2023/12/24 08:50:04;;;;;;;1.20;0.60;;;;;;;-143.84;41.91;45123.34;5092495;28;20436;-58
2023/12/24 08:52:33;;;;;;;0.83;0.60;;;;;;;-143.84;42.79;45125.22;5092306;28;20500;-57
2023/12/24 08:55:00;;;;;;;0.90;0.70;;;;;;;-143.84;43.22;45111.91;5095931;28;20939;-57
2023/12/24 08:57:27;;;;;;;0.80;0.60;;;;;;;-143.84;43.71;45121.44;5112743;28;20443;-57
2023/12/24 08:59:54;;;;;;;1.30;0.83;;;;;;;-143.84;44.07;45138.56;5100575;28;20482;-57
2023/12/24 09:02:21;;;;;;;1.13;1.00;;;;;;;-143.84;44.17;45132.84;5091868;28;20436;-57
2023/12/24 09:04:49;;;;;;;1.00;0.60;;;;;;;-143.84;43.53;45132.84;5096952;28;20443;-57
2023/12/24 09:07:17;;;;;;;5.57;1.43;;;;;;;-143.84;43.92;45132.84;5106153;28;20439;-58
2023/12/24 09:09:45;;;;;;;1.00;0.87;;;;;;;-143.84;44.09;45150.00;5095609;28;20444;-57
2023/12/24 09:12:12;;;;;;;1.00;0.73;;;;;;;-143.84;43.96;45113.81;5098242;28;20443;-58
2023/12/24 09:14:40;;;;;;;0.80;0.60;;;;;;;-143.84;43.29;45119.53;5093630;28;20435;-58
2023/12/24 09:17:07;;;;;;;1.40;0.70;;;;;;;-143.84;43.43;45138.56;5092440;28;20436;-57
2023/12/24 09:19:34;;;;;;;1.63;1.53;;;;;;;-143.84;43.53;45180.47;5090964;28;20549;-58
2023/12/24 09:22:01;;;;;;;1.63;1.53;;;;;;;-143.84;43.88;45138.56;5090714;28;20960;-58
2023/12/24 09:24:28;;;;;;;0.80;0.50;;;;;;;-143.84;44.21;45119.53;5091187;28;20432;-58
2023/12/24 09:26:57;;;;;;;0.80;0.40;;;;;;;-143.84;44.35;45125.22;5091051;28;20436;-58
2023/12/24 09:29:24;;;;;;;0.80;0.50;;;;;;;-143.84;44.74;45119.53;5090656;28;20444;-58
2023/12/24 09:31:51;;;;;;;0.80;0.50;;;;;;;-143.84;44.66;45150.00;5091020;28;20870;-58
2023/12/24 09:34:18;;;;;;;0.90;0.67;;;;;;;-143.84;45.08;45153.81;5090473;28;20551;-58
2023/12/24 09:36:45;;;;;;;0.80;0.50;;;;;;;-143.84;44.99;45138.56;5090345;28;20436;-58
2023/12/24 09:39:12;;;;;;;0.90;0.50;;;;;;;-143.84;45.44;45117.63;5090677;28;20488;-58
2023/12/24 09:41:40;;;;;;;0.80;0.50;;;;;;;-143.84;45.27;45106.19;5090472;28;20436;-58
2023/12/24 09:44:09;;;;;;;0.80;0.50;;;;;;;-143.84;44.88;45142.38;5090421;28;20432;-58
2023/12/24 09:46:36;;;;;;;0.80;0.50;;;;;;;-143.84;43.50;45123.34;5090680;28;20837;-58
2023/12/24 09:49:03;;;;;;;1.30;0.90;;;;;;;-143.84;42.88;45129.03;5090447;28;20513;-58
2023/12/24 09:51:33;;;;;;;0.80;0.47;;;;;;;-143.84;42.11;45111.91;5090315;28;20475;-58
2023/12/24 09:54:01;;;;;;;0.93;0.57;;;;;;;-143.84;41.97;45123.34;5090377;28;20432;-58
2023/12/24 09:56:28;;;;;;;0.80;0.50;;;;;;;-143.84;41.07;45077.63;5090371;28;21308;-58
2023/12/24 09:58:55;;;;;;;0.80;0.50;;;;;;;-143.84;41.08;45094.78;5109632;28;20471;-57
2023/12/24 10:01:23;;;;;;;0.90;0.70;;;;;;;-143.84;41.11;45110.00;5110761;28;21114;-58
2023/12/24 10:03:50;;;;;;;4.63;0.60;;;;;;;-143.84;41.00;45113.81;5091733;28;20443;-57
2023/12/24 10:06:17;;;;;;;1.00;0.80;;;;;;;-143.84;40.93;45113.81;5092291;28;20456;-58
2023/12/24 10:08:44;;;;;;;1.50;1.30;;;;;;;-143.84;41.57;45117.63;5090908;28;20539;-58
2023/12/24 10:11:16;;;;;;;0.80;0.50;;;;;;;-143.84;41.74;45110.00;5092538;28;20435;-58
2023/12/24 10:13:44;;;;;;;1.87;0.70;;;;;;;-143.84;41.86;45138.56;5094506;28;20530;-58
2023/12/24 10:16:11;;;;;;;2.30;1.23;;;;;;;-143.84;41.81;45134.75;5091696;28;20459;-58
2023/12/24 10:18:49;;;;;;;0.90;0.50;;;;;;;-143.84;41.70;45121.44;5091984;28;20455;-58
2023/12/24 10:21:18;;;;;;;4.10;2.10;;;;;;;-143.84;41.81;45102.38;5092352;28;20561;-59
2023/12/24 10:23:45;;;;;;;2.83;1.17;;;;;;;-143.84;42.72;45125.22;5095302;28;20443;-58
2023/12/24 10:26:12;;;;;;;1.67;0.60;;;;;;;-143.84;41.69;45125.22;5099221;28;20436;-58
2023/12/24 10:28:48;;;;;;;55.57;21.97;;;;;;;-143.84;41.63;45115.72;5109487;28;20516;-58
2023/12/24 10:31:15;;;;;;;30.57;16.47;;;;;;;-143.84;41.28;45119.53;5089447;28;20448;-58
2023/12/24 10:33:44;;;;;;;24.03;6.90;;;;;;;-143.84;40.73;45090.97;5089111;28;20498;-58
2023/12/24 10:36:11;;;;;;;6.33;2.33;;;;;;;-143.84;39.85;45119.53;5104379;28;20439;-58
2023/12/24 10:38:39;;;;;;;11.83;5.50;;;;;;;-143.84;40.87;45113.81;5109762;28;20430;-58
2023/12/24 10:41:07;;;;;;;4.40;2.87;;;;;;;-143.84;39.34;45110.00;5109386;28;20512;-59
2023/12/24 10:43:34;;;;;;;11.03;4.87;;;;;;;-143.84;39.80;45102.38;5109648;28;20445;-59
2023/12/24 10:46:01;;;;;;;6.50;4.30;;;;;;;-143.84;39.15;45115.72;5109677;28;20438;-56
2023/12/24 10:48:28;;;;;;;9.43;3.67;;;;;;;-143.84;39.04;45127.13;5106333;28;20447;-57
2023/12/24 10:50:57;;;;;;;9.73;4.20;;;;;;;-143.84;39.14;45094.78;5098090;28;20435;-59
2023/12/24 10:53:24;;;;;;;3.33;1.53;;;;;;;-143.84;38.59;45098.56;5097475;28;20444;-59
2023/12/24 10:56:00;;;;;;;5.27;1.03;;;;;;;-143.84;38.32;45077.63;5100084;28;20440;-58
2023/12/24 10:58:35;;;;;;;12.10;7.57;;;;;;;-143.84;38.16;45094.78;5109265;28;20445;-59
2023/12/24 11:01:08;;;;;;;12.90;6.20;;;;;;;-143.84;38.06;45083.34;5109320;28;20492;-59
2023/12/24 11:03:44;;;;;;;6.90;5.30;;;;;;;-143.84;38.58;45106.19;5101054;28;20848;-57
2023/12/24 11:06:50;;;;;;;1.30;1.20;;;;;;;-143.84;38.43;45094.78;5088869;28;20439;-58
2023/12/24 11:09:42;;;;;;;1.67;0.67;;;;;;;-143.84;38.75;45090.97;5089013;28;20570;-58
2023/12/24 11:12:10;;;;;;;2.63;1.73;;;;;;;-143.84;38.90;45081.44;5088787;28;20439;-58
2023/12/24 11:14:40;;;;;;;2.87;2.63;;;;;;;-143.84;38.55;45104.28;5088651;28;20440;-59
2023/12/24 11:17:08;;;;;;;1.30;1.20;;;;;;;-143.84;39.57;45071.91;5088691;28;20428;-58
2023/12/24 11:19:37;;;;;;;0.90;0.50;;;;;;;-143.84;39.09;45085.25;5088790;28;20476;-58
2023/12/24 11:22:11;;;;;;;1.63;1.10;;;;;;;-143.84;39.23;45121.44;5090485;28;21010;-58
2023/12/24 11:24:45;;;;;;;4.20;1.57;;;;;;;-143.84;39.07;45113.81;5098991;28;21021;-58
2023/12/24 11:27:12;;;;;;;3.77;3.47;;;;;;;-143.84;39.38;45119.53;5093895;28;20470;-58
2023/12/24 11:29:46;;;;;;;4.23;3.83;;;;;;;-143.84;39.58;45119.53;5096034;28;20458;-58
2023/12/24 11:32:35;;;;;;;1.00;0.80;;;;;;;-143.84;40.03;45110.00;5090976;28;20444;-58
2023/12/24 11:35:02;;;;;;;4.23;3.80;;;;;;;-143.84;40.62;45104.28;5089335;28;20872;-58
2023/12/24 11:37:34;;;;;;;4.00;1.37;;;;;;;-143.84;41.14;45115.72;5094150;28;20529;-59
2023/12/24 11:40:03;;;;;;;0.80;0.40;;;;;;;-143.84;41.36;45094.78;5086546;28;20503;-58
2023/12/24 11:42:44;;;;;;;8.70;5.97;;;;;;;-143.84;41.30;45111.91;5096530;28;21821;-58
2023/12/24 11:45:20;;;;;;;1.03;0.70;;;;;;;-143.84;41.54;45115.72;5096541;28;20861;-58
2023/12/24 11:47:48;;;;;;;0.87;0.60;;;;;;;-143.84;42.26;45108.09;5084585;28;20522;-60
2023/12/24 11:50:15;;;;;;;14.50;8.20;;;;;;;-143.84;42.52;45129.03;5087260;28;20451;-57
2023/12/24 11:52:46;;;;;;;7.47;4.80;;;;;;;-143.84;42.87;45127.13;5087082;28;20432;-57
2023/12/24 11:55:15;;;;;;;1.30;1.03;;;;;;;-143.84;43.42;45144.28;5087430;28;20450;-57
2023/12/24 11:57:43;;;;;;;0.97;0.47;;;;;;;-143.84;43.39;45127.13;5099308;28;20473;-57
2023/12/24 12:00:14;;;;;;;2.97;2.00;;;;;;;-143.84;43.78;45121.44;5100338;28;20486;-57
2023/12/24 12:02:42;;;;;;;4.20;1.30;;;;;;;-143.84;43.82;45136.66;5094887;28;20445;-57
2023/12/24 12:05:10;;;;;;;0.90;0.77;;;;;;;-143.84;44.67;45163.31;5098898;28;20439;-58
2023/12/24 12:07:37;;;;;;;1.20;0.77;;;;;;;-143.84;44.70;45113.81;5098961;28;21012;-57
2023/12/24 12:10:07;;;;;;;2.23;0.90;;;;;;;-143.84;45.02;45096.66;5097310;28;21010;-58
2023/12/24 12:12:34;;;;;;;2.23;2.00;;;;;;;-143.84;45.18;45142.38;5094020;28;20452;-57
2023/12/24 12:15:01;;;;;;;1.47;1.37;;;;;;;-143.84;45.50;45130.94;5097023;28;20450;-57
2023/12/24 12:17:29;;;;;;;1.27;1.17;;;;;;;-143.84;45.80;45113.81;5094680;28;20456;-57
2023/12/24 12:19:56;;;;;;;0.93;0.83;;;;;;;-143.84;46.21;45151.91;5098623;28;20892;-58
2023/12/24 12:22:23;;;;;;;1.03;0.80;;;;;;;-143.84;46.09;45144.28;5091027;28;20444;-57
2023/12/24 12:24:50;;;;;;;0.80;0.40;;;;;;;-143.84;46.09;45146.19;5096646;28;21571;-57
2023/12/24 12:27:18;;;;;;;0.80;0.60;;;;;;;-143.84;46.73;45142.38;5092522;28;20463;-57
2023/12/24 12:29:46;;;;;;;1.00;0.50;;;;;;;-143.84;46.86;45129.03;5094416;28;20435;-57
2023/12/24 12:32:13;;;;;;;0.80;0.50;;;;;;;-143.84;46.79;45117.63;5096514;28;21247;-57
2023/12/24 12:34:41;;;;;;;0.80;0.40;;;;;;;-143.84;46.82;45144.28;5100446;28;20915;-58
2023/12/24 12:37:08;;;;;;;0.80;0.60;;;;;;;-143.84;46.84;45136.66;5095364;28;20811;-57
2023/12/24 12:39:36;;;;;;;1.40;0.60;;;;;;;-143.84;47.27;45140.47;5093021;28;20514;-58
2023/12/24 12:42:04;;;;;;;1.00;0.70;;;;;;;-143.84;47.59;45138.56;5099694;28;20464;-57
2023/12/24 12:44:33;;;;;;;0.90;0.70;;;;;;;-143.84;48.59;45132.84;5098409;28;20442;-57
2023/12/24 12:47:01;;;;;;;0.80;0.50;;;;;;;-143.84;52.95;45136.66;5097947;28;20440;-58
2023/12/24 12:49:28;;;;;;;0.90;0.80;;;;;;;-143.84;52.19;45140.47;5099770;28;20449;-57
2023/12/24 12:51:55;;;;;;;0.80;0.60;;;;;;;-143.84;52.50;45169.03;5097363;28;20447;-57
2023/12/24 12:54:22;;;;;;;0.90;0.80;;;;;;;-143.84;53.36;45150.00;5104321;28;20479;-57
2023/12/24 12:56:50;;;;;;;0.80;0.57;;;;;;;-143.84;53.44;45148.09;5098097;28;20444;-58
2023/12/24 12:59:21;;;;;;;0.80;0.43;;;;;;;-143.84;53.86;45150.00;5095427;28;20443;-57
2023/12/24 13:01:50;;;;;;;1.30;0.87;;;;;;;-143.84;53.49;45155.69;5112138;28;20510;-58
2023/12/24 13:04:24;;;;;;;0.80;0.40;;;;;;;-143.84;53.69;45117.63;5111927;28;20963;-57
2023/12/24 13:06:52;;;;;;;0.90;0.60;;;;;;;-143.84;53.69;45130.94;5111898;28;20442;-58
2023/12/24 13:09:22;;;;;;;1.00;0.73;;;;;;;-143.84;54.90;45132.84;5111706;28;20431;-58
2023/12/24 13:11:49;;;;;;;0.80;0.50;;;;;;;-143.84;54.09;45123.34;5111735;28;20535;-58
2023/12/24 13:14:17;;;;;;;0.80;0.40;;;;;;;-143.84;53.23;45148.09;5112170;27;20516;-58
2023/12/24 13:16:44;;;;;;;0.80;0.50;;;;;;;-143.84;53.15;45140.47;5122323;27;20441;-59
2023/12/24 13:19:17;;;;;;;0.80;0.50;;;;;;;-143.84;53.53;45125.22;5131715;27;20446;-60
2023/12/24 13:21:44;;;;;;;7.40;0.80;;;;;;;-143.84;54.47;45125.22;5131492;27;20482;-58
2023/12/24 13:24:11;;;;;;;0.80;0.50;;;;;;;-143.84;52.90;45129.03;5131901;27;20442;-58
2023/12/24 13:26:39;;;;;;;0.80;0.50;;;;;;;-143.84;51.64;45113.81;5131869;27;20517;-58
2023/12/24 13:29:06;;;;;;;0.80;0.60;;;;;;;-143.84;51.63;45108.09;5131585;27;20959;-59
2023/12/24 13:31:34;;;;;;;1.30;0.60;;;;;;;-143.84;51.93;45111.91;5131613;27;20930;-59
2023/12/24 13:34:01;;;;;;;0.90;0.70;;;;;;;-143.84;51.53;45136.66;5131250;27;20481;-59
2023/12/24 13:36:29;;;;;;;0.80;0.53;;;;;;;-143.84;51.36;45121.44;5114149;27;20450;-59
2023/12/24 13:38:58;;;;;;;0.90;0.60;;;;;;;-143.84;50.57;45127.13;5094251;28;20516;-59
2023/12/24 13:41:25;;;;;;;2.03;0.70;;;;;;;-143.84;48.90;45106.19;5091762;28;20487;-59
2023/12/24 13:43:52;;;;;;;3.30;1.37;;;;;;;-143.84;48.38;45142.38;5091923;28;20463;-59
2023/12/24 13:46:21;;;;;;;1.00;0.90;;;;;;;-143.84;48.44;45117.63;5091486;28;20444;-59
2023/12/24 13:48:48;;;;;;;1.10;1.00;;;;;;;-143.84;48.77;45096.66;5094417;28;20448;-59
2023/12/24 13:51:18;;;;;;;0.90;0.73;;;;;;;-143.84;49.52;45125.22;5097702;28;20439;-58
2023/12/24 13:53:47;;;;;;;1.57;1.23;;;;;;;-143.84;50.13;45129.03;5091557;28;21345;-58
2023/12/24 13:56:14;;;;;;;2.90;1.53;;;;;;;-143.84;49.59;45132.84;5093720;28;20459;-58
2023/12/24 13:58:42;;;;;;;0.90;0.70;;;;;;;-143.84;50.26;45113.81;5097232;28;20462;-58
2023/12/24 14:01:09;;;;;;;1.00;0.90;;;;;;;-143.84;51.65;45140.47;5096584;28;20479;-58
2023/12/24 14:03:36;;;;;;;1.43;1.33;;;;;;;-143.84;53.09;45134.75;5099785;28;20470;-58
2023/12/24 14:06:06;;;;;;;1.73;1.00;;;;;;;-143.84;56.07;45132.84;5102253;28;21601;-58
2023/12/24 14:08:36;;;;;;;1.10;1.00;;;;;;;-143.84;57.85;45180.47;5095359;28;20466;-58
2023/12/24 14:11:05;;;;;;;2.20;1.37;;;;;;;-143.84;59.31;45117.63;5097629;28;20470;-58
2023/12/24 14:13:33;;;;;;;2.20;1.80;;;;;;;-143.84;60.36;45136.66;5099500;28;20443;-58
2023/12/24 14:16:00;;;;;;;0.90;0.77;;;;;;;-143.84;60.64;45151.91;5100574;28;20977;-58
2023/12/24 14:18:27;;;;;;;3.43;1.03;;;;;;;-143.84;61.09;45138.56;5098491;28;20436;-57
2023/12/24 14:20:54;;;;;;;0.90;0.60;;;;;;;-143.84;61.59;45129.03;5091065;28;21015;-58
2023/12/24 14:23:21;;;;;;;1.57;1.07;;;;;;;-143.84;62.47;45146.19;5090454;28;20450;-58
2023/12/24 14:25:49;;;;;;;1.27;0.97;;;;;;;-143.84;63.68;45146.19;5093755;28;20466;-57
2023/12/24 14:28:17;;;;;;;1.17;1.07;;;;;;;-143.84;64.90;45148.09;5094729;28;20957;-58
2023/12/24 14:30:44;;;;;;;2.70;0.93;;;;;;;-143.84;65.65;45125.22;5096496;28;20451;-57
2023/12/24 14:33:12;;;;;;;1.57;0.73;;;;;;;-143.84;65.96;45146.19;5100012;28;20455;-58
2023/12/24 14:35:39;;;;;;;1.57;1.37;;;;;;;-143.84;66.38;45148.09;5092607;28;20483;-57
2023/12/24 14:38:06;;;;;;;1.10;0.93;;;;;;;-143.84;66.96;45153.81;5091960;28;20440;-58
2023/12/24 14:40:33;;;;;;;2.10;1.47;;;;;;;-143.84;67.33;45150.00;5097794;28;20479;-58
2023/12/24 14:43:00;;;;;;;2.17;2.00;;;;;;;-143.84;67.94;45155.69;5090959;28;20987;-58
2023/12/24 14:45:29;;;;;;;1.30;1.20;;;;;;;-143.84;68.07;45161.41;5101399;28;20454;-57
2023/12/24 14:47:56;;;;;;;0.90;0.70;;;;;;;-143.84;69.03;45153.81;5091392;28;20846;-58
2023/12/24 14:50:23;;;;;;;1.40;0.93;;;;;;;-143.84;69.15;45153.81;5091318;28;20474;-58
2023/12/24 14:52:50;;;;;;;0.90;0.70;;;;;;;-143.84;69.19;45144.28;5100092;28;20940;-58
2023/12/24 14:55:18;;;;;;;1.30;0.80;;;;;;;-143.84;69.03;45165.22;5109309;28;20504;-58
2023/12/24 14:57:45;;;;;;;1.27;0.90;;;;;;;-143.84;69.29;45163.31;5109440;28;20439;-58
2023/12/24 15:00:13;;;;;;;1.53;1.43;;;;;;;-143.84;69.41;45169.03;5109321;28;20500;-58
2023/12/24 15:02:43;;;;;;;2.70;1.63;;;;;;;-143.84;69.58;45142.38;5109462;28;20799;-58
2023/12/24 15:05:10;;;;;;;4.10;0.73;;;;;;;-143.84;70.79;45136.66;5108818;28;20440;-57
2023/12/24 15:07:38;;;;;;;1.87;1.77;;;;;;;-143.84;72.22;45161.41;5109417;28;20442;-57
2023/12/24 15:10:07;;;;;;;0.90;0.70;;;;;;;-143.84;74.73;45144.28;5109465;28;20419;-57
2023/12/24 15:12:34;;;;;;;1.40;1.30;;;;;;;-143.84;75.56;45151.91;5108996;28;20438;-57
2023/12/24 15:15:02;;;;;;;1.20;1.10;;;;;;;-143.84;75.47;45153.81;5095484;28;20948;-58
2023/12/24 15:17:30;;;;;;;1.40;1.10;;;;;;;-143.84;76.21;45138.56;5100698;28;20497;-58
2023/12/24 15:19:59;;;;;;;3.53;1.30;;;;;;;-143.84;76.50;45136.66;5097845;28;20440;-57
2023/12/24 15:22:27;;;;;;;7.00;1.43;;;;;;;-143.84;77.07;45167.13;5093560;28;20481;-57
2023/12/24 15:24:54;;;;;;;1.43;1.33;;;;;;;-143.84;77.43;45146.19;5093696;28;20972;-57
2023/12/24 15:27:21;;;;;;;1.07;0.90;;;;;;;-143.84;79.00;45150.00;5091532;28;20451;-57
2023/12/24 15:29:48;;;;;;;2.90;2.00;;;;;;;-143.84;79.63;45151.91;5092842;28;20450;-58
2023/12/24 15:32:16;;;;;;;1.20;0.97;;;;;;;-143.84;79.74;45144.28;5100018;28;20451;-57
2023/12/24 15:34:44;;;;;;;1.33;1.10;;;;;;;-143.84;79.64;45132.84;5098614;28;20491;-57
2023/12/24 15:37:12;;;;;;;1.30;1.00;;;;;;;-143.84;79.11;45148.09;5089979;28;20543;-57
2023/12/24 15:39:40;;;;;;;1.90;1.80;;;;;;;-143.84;78.65;45172.84;5097429;28;20463;-57
2023/12/24 15:42:07;;;;;;;1.70;1.60;;;;;;;-143.84;77.93;45148.09;5099429;28;20471;-57
2023/12/24 15:44:34;;;;;;;1.93;1.53;;;;;;;-143.84;76.83;45146.19;5096267;28;20439;-57
2023/12/24 15:47:02;;;;;;;2.17;2.03;;;;;;;-143.84;76.66;45163.31;5098185;28;20439;-57
2023/12/24 15:49:29;;;;;;;2.00;1.77;;;;;;;-143.84;76.42;45146.19;5093966;28;20439;-57
2023/12/24 15:51:56;;;;;;;1.50;1.40;;;;;;;-143.84;76.25;45155.69;5093490;28;20794;-57
2023/12/24 15:54:24;;;;;;;1.10;1.00;;;;;;;-143.84;76.46;45148.09;5097202;28;20440;-57
2023/12/24 15:56:53;;;;;;;2.67;2.47;;;;;;;-143.84;76.21;45146.19;5097347;28;20458;-57
2023/12/24 15:59:20;;;;;;;3.17;2.00;;;;;;;-143.84;75.94;45161.41;5098850;28;20446;-57
2023/12/24 16:01:47;;;;;;;2.90;1.10;;;;;;;-143.84;75.53;45157.59;5098842;28;21021;-57
2023/12/24 16:04:14;;;;;;;0.90;0.80;;;;;;;-143.84;75.46;45165.22;5092991;28;20466;-57
2023/12/24 16:06:41;;;;;;;0.90;0.60;;;;;;;-143.84;76.12;45159.50;5089443;28;20459;-57
2023/12/24 16:09:09;;;;;;;0.90;0.50;;;;;;;-143.84;76.43;45140.47;5094519;28;20454;-57
2023/12/24 16:11:38;;;;;;;0.80;0.47;;;;;;;-143.84;76.77;45146.19;5098358;28;20948;-57
2023/12/24 16:14:07;;;;;;;0.90;0.60;;;;;;;-143.84;76.39;45148.09;5092414;28;20447;-57
2023/12/24 16:16:34;;;;;;;1.00;0.70;;;;;;;-143.84;76.23;45167.13;5095649;28;20512;-57
2023/12/24 16:19:02;;;;;;;2.30;2.10;;;;;;;-143.84;76.81;45174.75;5102460;28;20535;-57
2023/12/24 16:21:29;;;;;;;0.90;0.50;;;;;;;-143.84;78.37;45186.16;5101694;28;20502;-57
2023/12/24 16:23:56;;;;;;;0.80;0.60;;;;;;;-143.84;79.32;45140.47;5102434;28;20451;-57
2023/12/24 16:26:23;;;;;;;0.90;0.60;;;;;;;-143.84;79.83;45144.28;5104104;28;20465;-57
2023/12/24 16:28:52;;;;;;;0.80;0.50;;;;;;;-143.84;79.94;45170.94;5099486;28;20447;-57
2023/12/24 16:31:19;;;;;;;1.00;0.73;;;;;;;-143.84;79.87;45161.41;5094649;28;20455;-57
2023/12/24 16:33:46;;;;;;;1.13;1.03;;;;;;;-143.84;79.28;45144.28;5098564;28;20486;-57
2023/12/24 16:36:13;;;;;;;2.73;2.53;;;;;;;-143.84;80.24;45176.66;5091747;28;20496;-57
2023/12/24 16:38:41;;;;;;;2.60;2.40;;;;;;;-143.84;80.76;45151.91;5091687;28;20633;-57
2023/12/24 16:41:08;;;;;;;3.97;2.93;;;;;;;-143.84;81.43;45167.13;5091635;28;20867;-57
2023/12/24 16:43:35;;;;;;;1.33;0.97;;;;;;;-143.84;81.82;45172.84;5091441;28;20427;-58
2023/12/24 16:46:08;;;;;;;1.73;1.40;;;;;;;-143.84;82.79;45138.56;5091854;28;20964;-58
2023/12/24 16:48:35;;;;;;;2.30;1.77;;;;;;;-143.84;84.22;45155.69;5091803;28;20945;-57
2023/12/24 16:51:03;;;;;;;3.77;1.70;;;;;;;-143.84;85.20;45163.31;5091275;28;20440;-58
2023/12/24 16:53:30;;;;;;;1.50;1.40;;;;;;;-143.84;86.22;45170.94;5091265;28;20505;-57
2023/12/24 16:56:02;;;;;;;4.47;1.10;;;;;;;-143.84;86.52;45165.22;5091488;28;20435;-57
2023/12/24 16:58:30;;;;;;;0.90;0.73;;;;;;;-143.84;87.81;45172.84;5091060;28;20455;-57
2023/12/24 17:00:57;;;;;;;0.80;0.50;;;;;;;-143.84;89.06;45153.81;5091367;28;21073;-57
2023/12/24 17:03:26;;;;;;;0.90;0.70;;;;;;;-143.84;89.72;45148.09;5091460;28;20777;-57
2023/12/24 17:05:53;;;;;;;1.53;1.13;;;;;;;-143.84;90.49;45159.50;5091257;28;20851;-57
2023/12/24 17:08:20;;;;;;;1.43;1.33;;;;;;;-143.84;90.83;45146.19;5091261;28;20432;-57
2023/12/24 17:10:50;;;;;;;1.30;0.63;;;;;;;-143.84;90.96;45161.41;5091098;28;20436;-57
2023/12/24 17:13:17;;;;;;;1.10;0.97;;;;;;;-143.84;91.14;45150.00;5090948;28;20432;-57
2023/12/24 17:15:45;;;;;;;1.13;1.03;;;;;;;-143.84;91.68;45165.22;5102572;28;20439;-57
2023/12/24 17:18:12;;;;;;;0.97;0.77;;;;;;;-143.84;92.31;45148.09;5111478;28;20450;-57
2023/12/24 17:20:41;;;;;;;2.83;1.27;;;;;;;-143.84;91.80;45151.91;5110760;28;20434;-57
2023/12/24 17:23:09;;;;;;;0.80;0.50;;;;;;;-143.84;91.95;45146.19;5111048;28;20435;-57
2023/12/24 17:25:36;;;;;;;2.00;1.00;;;;;;;-143.84;91.63;45163.31;5107920;28;21013;-57
2023/12/24 17:28:04;;;;;;;8.23;2.20;;;;;;;-143.84;91.57;45155.69;5110175;28;20533;-57
2023/12/24 17:30:31;;;;;;;1.53;1.20;;;;;;;-143.84;91.61;45150.00;5110641;28;20439;-57
2023/12/24 17:32:58;;;;;;;1.13;1.03;;;;;;;-143.84;90.88;45155.69;5111122;28;20453;-61
2023/12/24 17:35:26;;;;;;;0.90;0.80;;;;;;;-143.84;89.45;45170.94;5101291;28;20490;-61
2023/12/24 17:37:54;;;;;;;1.00;0.80;;;;;;;-143.84;89.01;45144.28;5089485;28;20497;-61
2023/12/24 17:40:26;;;;;;;1.23;1.00;;;;;;;-143.84;88.77;45148.09;5101076;28;20451;-61
2023/12/24 17:42:53;;;;;;;4.90;1.33;;;;;;;-143.84;88.39;45163.31;5090813;28;20476;-61
2023/12/24 17:45:21;;;;;;;3.83;1.90;;;;;;;-143.84;87.93;45151.91;5094582;28;20881;-61
2023/12/24 17:47:49;;;;;;;1.57;1.13;;;;;;;-143.84;87.93;45167.13;5102767;28;20526;-61
2023/12/24 17:50:17;;;;;;;5.17;2.73;;;;;;;-143.84;87.00;45165.22;5109696;28;20431;-61
2023/12/24 17:52:43;;;;;;;2.90;2.03;;;;;;;-143.84;85.92;45155.69;5110022;28;20838;-61
2023/12/24 17:55:11;;;;;;;1.20;1.10;;;;;;;-143.84;85.60;45165.22;5095227;28;20475;-61